createdAt,value
2019-02-23T00:00:07.524Z,7.75
2019-02-23T00:01:07.506Z,7.70
2019-02-23T00:02:07.537Z,7.72
2019-02-23T00:03:07.487Z,7.69
2019-02-23T00:04:07.479Z,7.67
2019-02-23T00:05:07.467Z,7.60
2019-02-23T00:06:07.449Z,7.54
2019-02-23T00:07:07.443Z,7.54
2019-02-23T00:08:07.456Z,7.45
2019-02-23T00:09:07.461Z,7.54
2019-02-23T00:10:07.549Z,7.54
2019-02-23T00:11:07.403Z,7.48
2019-02-23T00:12:07.404Z,7.38
2019-02-23T00:13:07.482Z,7.53
2019-02-23T00:14:07.366Z,7.48
2019-02-23T00:15:07.346Z,7.47
2019-02-23T00:16:07.335Z,7.54
2019-02-23T00:17:07.325Z,7.53
2019-02-23T00:18:07.316Z,7.50
2019-02-23T00:19:07.326Z,7.47
2019-02-23T00:20:07.298Z,7.51
2019-02-23T00:21:07.318Z,7.48
2019-02-23T00:22:07.285Z,7.42
2019-02-23T00:23:07.270Z,7.40
2019-02-23T00:24:07.282Z,7.33
2019-02-23T00:25:07.265Z,7.35
2019-02-23T00:26:07.234Z,7.39
2019-02-23T00:27:07.211Z,7.39
2019-02-23T00:28:07.208Z,7.47
2019-02-23T00:29:07.194Z,7.38
2019-02-23T00:30:07.226Z,7.32
2019-02-23T00:31:07.164Z,7.35
2019-02-23T00:32:07.188Z,7.43
2019-02-23T00:33:07.157Z,7.35
2019-02-23T00:34:07.148Z,7.33
2019-02-23T00:35:07.120Z,7.33
2019-02-23T00:36:07.146Z,7.36
2019-02-23T00:37:07.111Z,7.35
2019-02-23T00:38:07.095Z,7.32
2019-02-23T00:39:07.085Z,7.36
2019-02-23T00:40:07.212Z,7.36
2019-02-23T00:41:07.076Z,7.33
2019-02-23T00:42:07.070Z,7.32
2019-02-23T00:43:07.119Z,7.29
2019-02-23T00:44:07.050Z,7.23
2019-02-23T00:45:07.042Z,7.31
2019-02-23T00:46:07.002Z,7.21
2019-02-23T00:47:06.990Z,7.20
2019-02-23T00:48:06.982Z,7.31
2019-02-23T00:49:07.000Z,7.28
2019-02-23T00:50:06.964Z,7.32
2019-02-23T00:51:06.962Z,7.24
2019-02-23T00:52:06.942Z,7.24
2019-02-23T00:53:06.929Z,7.29
2019-02-23T00:54:06.915Z,7.20
2019-02-23T00:55:06.937Z,7.20
2019-02-23T00:56:06.913Z,7.17
2019-02-23T00:57:06.885Z,7.23
2019-02-23T00:58:06.869Z,7.15
2019-02-23T00:59:06.865Z,7.15
2019-02-23T01:00:06.868Z,7.13
2019-02-23T01:01:06.834Z,7.25
2019-02-23T01:02:06.843Z,7.21
2019-02-23T01:03:06.811Z,7.15
2019-02-23T01:04:06.802Z,7.06
2019-02-23T01:05:06.813Z,7.06
2019-02-23T01:06:06.797Z,7.00
2019-02-23T01:07:06.767Z,7.03
2019-02-23T01:08:06.757Z,7.07
2019-02-23T01:09:06.745Z,6.95
2019-02-23T01:10:06.741Z,6.99
2019-02-23T01:11:06.720Z,6.95
2019-02-23T01:12:06.780Z,6.88
2019-02-23T01:13:06.725Z,6.89
2019-02-23T01:14:06.686Z,6.95
2019-02-23T01:15:06.701Z,6.81
2019-02-23T01:16:06.672Z,6.87
2019-02-23T01:17:06.657Z,6.85
2019-02-23T01:18:06.644Z,6.89
2019-02-23T01:19:06.628Z,6.88
2019-02-23T01:20:06.619Z,6.88
2019-02-23T01:21:06.645Z,6.81
2019-02-23T01:22:06.621Z,6.85
2019-02-23T01:23:06.587Z,6.77
2019-02-23T01:24:06.580Z,6.79
2019-02-23T01:25:06.556Z,6.75
2019-02-23T01:26:06.544Z,6.77
2019-02-23T01:27:06.567Z,6.77
2019-02-23T01:28:06.532Z,6.70
2019-02-23T01:29:07.472Z,6.70
2019-02-23T01:30:06.521Z,6.70
2019-02-23T01:31:06.494Z,6.72
2019-02-23T01:32:06.490Z,6.72
2019-02-23T01:33:06.470Z,6.70
2019-02-23T01:34:06.504Z,6.77
2019-02-23T01:35:06.491Z,6.69
2019-02-23T01:36:06.443Z,6.70
2019-02-23T01:37:06.508Z,6.69
2019-02-23T01:38:06.416Z,6.74
2019-02-23T01:39:06.410Z,6.77
2019-02-23T01:40:06.966Z,6.74
2019-02-23T01:41:06.429Z,6.67
2019-02-23T01:42:06.371Z,6.69
2019-02-23T01:43:06.360Z,6.63
2019-02-23T01:44:06.348Z,6.59
2019-02-23T01:45:06.337Z,6.62
2019-02-23T01:46:06.386Z,6.64
2019-02-23T01:47:06.329Z,6.64
2019-02-23T01:48:06.298Z,6.57
2019-02-23T01:49:06.293Z,6.52
2019-02-23T01:50:06.280Z,6.44
2019-02-23T01:51:06.298Z,6.57
2019-02-23T01:52:06.253Z,6.51
2019-02-23T01:53:06.271Z,6.44
2019-02-23T01:54:06.306Z,6.51
2019-02-23T01:55:06.225Z,6.45
2019-02-23T01:56:06.297Z,6.49
2019-02-23T01:57:06.226Z,6.51
2019-02-23T01:58:06.206Z,6.52
2019-02-23T01:59:06.184Z,6.44
2019-02-23T02:00:06.170Z,6.46
2019-02-23T02:01:06.160Z,6.35
2019-02-23T02:02:06.171Z,6.38
2019-02-23T02:03:06.173Z,6.36
2019-02-23T02:04:06.162Z,6.31
2019-02-23T02:05:06.113Z,6.35
2019-02-23T02:06:06.111Z,6.33
2019-02-23T02:07:06.124Z,6.38
2019-02-23T02:08:06.083Z,6.31
2019-02-23T02:09:06.138Z,6.33
2019-02-23T02:10:06.078Z,6.27
2019-02-23T02:11:06.052Z,6.35
2019-02-23T02:12:06.083Z,6.30
2019-02-23T02:13:06.025Z,6.22
2019-02-23T02:14:06.012Z,6.28
2019-02-23T02:15:06.020Z,6.20
2019-02-23T02:16:06.008Z,6.22
2019-02-23T02:17:05.990Z,6.24
2019-02-23T02:18:05.969Z,6.22
2019-02-23T02:19:05.990Z,6.27
2019-02-23T02:20:10.863Z,6.26
2019-02-23T02:21:06.945Z,6.22
2019-02-23T02:22:05.932Z,6.28
2019-02-23T02:23:06.001Z,6.17
2019-02-23T02:24:05.905Z,6.20
2019-02-23T02:25:05.911Z,6.24
2019-02-23T02:26:05.953Z,6.20
2019-02-23T02:27:05.899Z,6.20
2019-02-23T02:28:05.867Z,6.20
2019-02-23T02:29:05.848Z,6.26
2019-02-23T02:30:05.834Z,6.14
2019-02-23T02:31:05.851Z,6.16
2019-02-23T02:32:05.810Z,6.14
2019-02-23T02:33:05.830Z,6.05
2019-02-23T02:34:05.787Z,6.07
2019-02-23T02:35:05.777Z,6.11
2019-02-23T02:36:05.768Z,6.07
2019-02-23T02:37:05.760Z,6.04
2019-02-23T02:38:05.807Z,6.09
2019-02-23T02:39:05.803Z,6.07
2019-02-23T02:40:05.758Z,5.98
2019-02-23T02:41:05.717Z,5.98
2019-02-23T02:42:05.749Z,5.98
2019-02-23T02:43:05.687Z,5.99
2019-02-23T02:44:05.706Z,5.93
2019-02-23T02:45:05.692Z,5.90
2019-02-23T02:46:05.660Z,5.93
2019-02-23T02:47:05.649Z,5.90
2019-02-23T02:48:05.641Z,5.91
2019-02-23T02:49:05.625Z,5.90
2019-02-23T02:50:05.646Z,5.91
2019-02-23T02:51:05.591Z,5.89
2019-02-23T02:52:05.589Z,5.90
2019-02-23T02:53:05.573Z,5.89
2019-02-23T02:54:05.578Z,5.89
2019-02-23T02:55:05.550Z,5.84
2019-02-23T02:56:05.567Z,5.76
2019-02-23T02:57:05.533Z,5.75
2019-02-23T02:58:05.525Z,5.71
2019-02-23T02:59:05.515Z,5.68
2019-02-23T03:00:05.500Z,5.64
2019-02-23T03:01:05.512Z,5.65
2019-02-23T03:02:05.479Z,5.61
2019-02-23T03:03:05.983Z,5.61
2019-02-23T03:04:05.459Z,5.62
2019-02-23T03:05:05.454Z,5.61
2019-02-23T03:06:05.626Z,5.64
2019-02-23T03:07:05.453Z,5.48
2019-02-23T03:08:05.410Z,5.48
2019-02-23T03:09:05.409Z,5.53
2019-02-23T03:10:05.396Z,5.39
2019-02-23T03:11:05.382Z,5.44
2019-02-23T03:12:05.395Z,5.51
2019-02-23T03:13:05.385Z,5.33
2019-02-23T03:14:05.348Z,5.30
2019-02-23T03:15:05.340Z,5.47
2019-02-23T03:16:05.336Z,5.35
2019-02-23T03:17:05.316Z,5.43
2019-02-23T03:18:05.312Z,5.36
2019-02-23T03:19:05.309Z,5.35
2019-02-23T03:20:05.283Z,5.36
2019-02-23T03:21:05.274Z,5.30
2019-02-23T03:22:05.263Z,5.26
2019-02-23T03:23:05.249Z,5.28
2019-02-23T03:24:05.251Z,5.29
2019-02-23T03:25:05.294Z,5.29
2019-02-23T03:26:05.235Z,5.20
2019-02-23T03:27:05.212Z,5.21
2019-02-23T03:28:05.195Z,5.26
2019-02-23T03:29:05.180Z,5.20
2019-02-23T03:30:05.189Z,5.21
2019-02-23T03:31:05.192Z,5.15
2019-02-23T03:32:05.157Z,5.25
2019-02-23T03:33:05.180Z,5.15
2019-02-23T03:34:05.126Z,5.15
2019-02-23T03:35:05.160Z,5.12
2019-02-23T03:36:05.114Z,5.00
2019-02-23T03:37:05.092Z,5.10
2019-02-23T03:38:05.098Z,5.05
2019-02-23T03:39:05.075Z,5.02
2019-02-23T03:40:05.061Z,5.04
2019-02-23T03:41:05.049Z,5.04
2019-02-23T03:42:05.037Z,4.97
2019-02-23T03:43:05.089Z,4.97
2019-02-23T03:44:05.147Z,4.97
2019-02-23T03:45:05.121Z,5.00
2019-02-23T03:46:05.158Z,5.02
2019-02-23T03:47:04.980Z,4.96
2019-02-23T03:48:04.979Z,4.86
2019-02-23T03:49:04.967Z,4.97
2019-02-23T03:50:04.964Z,4.96
2019-02-23T03:51:04.941Z,4.90
2019-02-23T03:52:04.941Z,4.80
2019-02-23T03:53:04.925Z,4.86
2019-02-23T03:54:04.912Z,4.84
2019-02-23T03:55:04.927Z,4.77
2019-02-23T03:56:04.900Z,4.73
2019-02-23T03:57:04.873Z,4.77
2019-02-23T03:58:04.858Z,4.73
2019-02-23T03:59:05.488Z,4.67
2019-02-23T04:00:04.867Z,4.70
2019-02-23T04:01:04.832Z,4.74
2019-02-23T04:02:04.816Z,4.78
2019-02-23T04:03:04.800Z,4.73
2019-02-23T04:04:04.791Z,4.67
2019-02-23T04:05:04.927Z,4.66
2019-02-23T04:06:04.807Z,4.68
2019-02-23T04:07:04.851Z,4.75
2019-02-23T04:08:04.760Z,4.66
2019-02-23T04:09:04.739Z,4.67
2019-02-23T04:10:04.746Z,4.62
2019-02-23T04:11:04.737Z,4.62
2019-02-23T04:12:04.727Z,4.67
2019-02-23T04:13:04.694Z,4.68
2019-02-23T04:14:04.685Z,4.60
2019-02-23T04:15:04.671Z,4.66
2019-02-23T04:16:04.685Z,4.67
2019-02-23T04:17:04.681Z,4.67
2019-02-23T04:18:04.638Z,4.60
2019-02-23T04:19:04.634Z,4.66
2019-02-23T04:20:04.614Z,4.62
2019-02-23T04:21:04.605Z,4.68
2019-02-23T04:22:04.596Z,4.66
2019-02-23T04:23:04.612Z,4.71
2019-02-23T04:24:04.571Z,4.60
2019-02-23T04:25:04.584Z,4.63
2019-02-23T04:26:04.555Z,4.60
2019-02-23T04:27:04.540Z,4.62
2019-02-23T04:28:04.555Z,4.68
2019-02-23T04:29:04.516Z,4.68
2019-02-23T04:30:04.515Z,4.63
2019-02-23T04:31:04.515Z,4.66
2019-02-23T04:32:04.526Z,4.52
2019-02-23T04:33:04.494Z,4.60
2019-02-23T04:34:04.464Z,4.56
2019-02-23T04:35:04.456Z,4.55
2019-02-23T04:36:04.447Z,4.58
2019-02-23T04:37:04.431Z,4.48
2019-02-23T04:38:04.444Z,4.49
2019-02-23T04:39:04.512Z,4.41
2019-02-23T04:40:04.415Z,4.42
2019-02-23T04:41:04.382Z,4.38
2019-02-23T04:42:04.381Z,4.37
2019-02-23T04:43:04.358Z,4.40
2019-02-23T04:44:04.398Z,4.38
2019-02-23T04:45:04.368Z,4.37
2019-02-23T04:46:04.335Z,4.37
2019-02-23T04:47:04.394Z,4.32
2019-02-23T04:48:04.335Z,4.26
2019-02-23T04:49:04.344Z,4.28
2019-02-23T04:50:04.282Z,4.30
2019-02-23T04:51:13.904Z,4.35
2019-02-23T04:52:05.257Z,4.16
2019-02-23T04:53:04.258Z,4.28
2019-02-23T04:54:04.245Z,4.23
2019-02-23T04:55:04.257Z,4.17
2019-02-23T04:56:04.215Z,4.19
2019-02-23T04:57:04.230Z,4.14
2019-02-23T04:58:04.196Z,4.23
2019-02-23T04:59:04.180Z,4.13
2019-02-23T05:00:04.175Z,4.14
2019-02-23T05:01:04.161Z,4.17
2019-02-23T05:02:04.148Z,4.16
2019-02-23T05:03:04.160Z,4.14
2019-02-23T05:04:04.132Z,4.19
2019-02-23T05:05:04.150Z,4.17
2019-02-23T05:06:04.115Z,4.23
2019-02-23T05:07:04.098Z,4.13
2019-02-23T05:08:04.099Z,4.14
2019-02-23T05:09:04.070Z,4.01
2019-02-23T05:10:04.102Z,4.10
2019-02-23T05:11:04.059Z,4.08
2019-02-23T05:12:04.043Z,3.99
2019-02-23T05:13:04.044Z,4.04
2019-02-23T05:14:04.026Z,4.02
2019-02-23T05:15:04.067Z,3.98
2019-02-23T05:16:04.014Z,3.98
2019-02-23T05:17:03.985Z,4.02
2019-02-23T05:18:03.973Z,3.98
2019-02-23T05:19:04.568Z,3.96
2019-02-23T05:20:03.951Z,3.91
2019-02-23T05:21:03.965Z,3.95
2019-02-23T05:22:03.946Z,3.91
2019-02-23T05:23:03.936Z,3.94
2019-02-23T05:24:03.916Z,3.94
2019-02-23T05:25:03.895Z,3.91
2019-02-23T05:26:03.885Z,3.92
2019-02-23T05:28:05.562Z,4.01
2019-02-23T05:29:03.847Z,3.92
2019-02-23T05:30:03.842Z,3.94
2019-02-23T05:31:03.828Z,3.91
2019-02-23T05:32:03.819Z,3.78
2019-02-23T05:33:03.834Z,3.76
2019-02-23T05:34:03.844Z,3.70
2019-02-23T05:35:03.811Z,3.80
2019-02-23T05:36:03.774Z,3.78
2019-02-23T05:37:03.841Z,3.74
2019-02-23T05:38:03.763Z,3.69
2019-02-23T05:39:03.817Z,3.73
2019-02-23T05:40:03.875Z,3.62
2019-02-23T05:41:03.728Z,3.66
2019-02-23T05:42:03.710Z,3.76
2019-02-23T05:43:03.698Z,3.76
2019-02-23T05:44:03.737Z,3.70
2019-02-23T05:45:03.730Z,3.66
2019-02-23T05:46:03.703Z,3.69
2019-02-23T05:47:03.651Z,3.70
2019-02-23T05:48:03.649Z,3.68
2019-02-23T05:49:03.647Z,3.76
2019-02-23T05:50:03.616Z,3.74
2019-02-23T05:51:03.637Z,3.73
2019-02-23T05:52:03.603Z,3.74
2019-02-23T05:53:03.588Z,3.65
2019-02-23T05:54:03.575Z,3.60
2019-02-23T05:55:03.571Z,3.63
2019-02-23T05:56:03.576Z,3.63
2019-02-23T05:57:03.542Z,3.59
2019-02-23T05:58:03.535Z,3.60
2019-02-23T05:59:03.533Z,3.63
2019-02-23T06:00:03.524Z,3.62
2019-02-23T06:01:03.501Z,3.63
2019-02-23T06:02:03.513Z,3.66
2019-02-23T06:03:03.480Z,3.58
2019-02-23T06:04:03.672Z,3.62
2019-02-23T06:05:03.455Z,3.69
2019-02-23T06:06:03.472Z,3.68
2019-02-23T06:07:03.499Z,3.59
2019-02-23T06:08:03.492Z,3.60
2019-02-23T06:09:03.433Z,3.58
2019-02-23T06:10:03.395Z,3.60
2019-02-23T06:11:03.392Z,3.53
2019-02-23T06:12:03.409Z,3.53
2019-02-23T06:13:03.428Z,3.55
2019-02-23T06:14:03.398Z,3.53
2019-02-23T06:15:03.350Z,3.51
2019-02-23T06:16:03.345Z,3.45
2019-02-23T06:17:04.248Z,3.48
2019-02-23T06:18:03.347Z,3.56
2019-02-23T06:19:03.306Z,3.44
2019-02-23T06:20:03.351Z,3.48
2019-02-23T06:21:03.336Z,3.37
2019-02-23T06:22:03.291Z,3.40
2019-02-23T06:23:03.253Z,3.47
2019-02-23T06:24:03.277Z,3.47
2019-02-23T06:25:03.281Z,3.45
2019-02-23T06:26:03.320Z,3.45
2019-02-23T06:27:03.221Z,3.55
2019-02-23T06:28:03.329Z,3.55
2019-02-23T06:29:03.191Z,3.50
2019-02-23T06:30:03.196Z,3.59
2019-02-23T06:31:03.263Z,3.50
2019-02-23T06:32:03.156Z,3.45
2019-02-23T06:33:03.153Z,3.47
2019-02-23T06:34:14.998Z,3.42
2019-02-23T06:35:04.155Z,3.45
2019-02-23T06:36:03.220Z,3.48
2019-02-23T06:37:04.004Z,3.40
2019-02-23T06:38:04.429Z,3.36
2019-02-23T06:39:03.082Z,3.47
2019-02-23T06:40:03.069Z,3.40
2019-02-23T06:41:03.084Z,3.44
2019-02-23T06:42:03.049Z,3.32
2019-02-23T06:43:03.035Z,3.26
2019-02-23T06:44:03.044Z,3.44
2019-02-23T06:45:03.018Z,3.41
2019-02-23T06:46:02.999Z,3.36
2019-02-23T06:47:03.201Z,3.41
2019-02-23T06:48:02.988Z,3.45
2019-02-23T06:49:02.998Z,3.50
2019-02-23T06:50:03.516Z,3.44
2019-02-23T06:51:02.950Z,3.50
2019-02-23T06:52:04.582Z,3.45
2019-02-23T06:53:02.933Z,3.45
2019-02-23T06:54:02.920Z,3.45
2019-02-23T06:55:02.929Z,3.47
2019-02-23T06:56:02.909Z,3.50
2019-02-23T06:57:02.881Z,3.50
2019-02-23T06:58:02.877Z,3.51
2019-02-23T06:59:02.941Z,3.53
2019-02-23T07:00:02.878Z,3.59
2019-02-23T07:01:02.838Z,3.55
2019-02-23T07:02:02.826Z,3.60
2019-02-23T07:03:02.816Z,3.68
2019-02-23T07:04:02.814Z,3.62
2019-02-23T07:05:02.794Z,3.62
2019-02-23T07:06:02.828Z,3.62
2019-02-23T07:07:02.777Z,3.59
2019-02-23T07:08:02.760Z,3.59
2019-02-23T07:09:02.753Z,3.60
2019-02-23T07:10:02.743Z,3.60
2019-02-23T07:11:02.768Z,3.74
2019-02-23T07:12:02.719Z,3.76
2019-02-23T07:13:02.713Z,3.74
2019-02-23T07:14:02.722Z,3.76
2019-02-23T07:15:02.682Z,3.70
2019-02-23T07:16:02.685Z,3.74
2019-02-23T07:17:05.050Z,3.70
2019-02-23T07:18:02.649Z,3.70
2019-02-23T07:19:02.658Z,3.80
2019-02-23T07:20:02.771Z,3.78
2019-02-23T07:21:02.630Z,3.78
2019-02-23T07:22:02.602Z,3.81
2019-02-23T07:23:02.600Z,3.77
2019-02-23T07:24:02.615Z,3.83
2019-02-23T07:25:02.580Z,3.74
2019-02-23T07:26:02.561Z,3.86
2019-02-23T07:27:02.591Z,3.77
2019-02-23T07:28:02.585Z,3.81
2019-02-23T07:29:02.552Z,3.87
2019-02-23T07:30:02.544Z,3.81
2019-02-23T07:31:02.536Z,3.87
2019-02-23T07:32:02.521Z,3.99
2019-02-23T07:33:03.521Z,3.98
2019-02-23T07:34:02.472Z,4.05
2019-02-23T07:35:02.462Z,4.20
2019-02-23T07:36:03.091Z,4.14
2019-02-23T07:37:02.472Z,4.24
2019-02-23T07:38:02.430Z,4.23
2019-02-23T07:39:02.415Z,4.22
2019-02-23T07:40:02.435Z,4.19
2019-02-23T07:41:02.424Z,4.26
2019-02-23T07:42:02.393Z,4.38
2019-02-23T07:43:02.400Z,4.40
2019-02-23T07:44:03.435Z,4.50
2019-02-23T07:45:02.349Z,4.59
2019-02-23T07:46:02.366Z,4.66
2019-02-23T07:47:02.362Z,4.68
2019-02-23T07:48:02.360Z,4.63
2019-02-23T07:49:02.317Z,4.59
2019-02-23T07:50:02.315Z,4.62
2019-02-23T07:51:02.292Z,4.60
2019-02-23T07:52:02.275Z,4.58
2019-02-23T07:53:02.297Z,4.59
2019-02-23T07:54:02.269Z,4.53
2019-02-23T07:55:02.260Z,4.55
2019-02-23T07:56:02.239Z,4.53
2019-02-23T07:57:02.218Z,4.52
2019-02-23T07:58:02.257Z,4.50
2019-02-23T07:59:02.211Z,4.50
2019-02-23T08:00:02.195Z,4.55
2019-02-23T08:01:02.221Z,4.45
2019-02-23T08:02:02.175Z,4.52
2019-02-23T08:03:02.201Z,4.52
2019-02-23T08:04:02.144Z,4.56
2019-02-23T08:05:02.128Z,4.55
2019-02-23T08:06:02.130Z,4.56
2019-02-23T08:07:02.134Z,4.58
2019-02-23T08:08:02.123Z,4.58
2019-02-23T08:09:02.086Z,4.67
2019-02-23T08:10:02.100Z,4.78
2019-02-23T08:11:02.066Z,4.74
2019-02-23T08:12:02.077Z,4.86
2019-02-23T08:13:02.086Z,4.93
2019-02-23T08:14:02.060Z,4.97
2019-02-23T08:15:02.043Z,4.99
2019-02-23T08:16:02.008Z,4.99
2019-02-23T08:17:02.007Z,4.96
2019-02-23T08:18:01.989Z,4.96
2019-02-23T08:19:01.975Z,5.04
2019-02-23T08:20:01.986Z,4.94
2019-02-23T08:21:02.009Z,5.00
2019-02-23T08:22:01.939Z,5.04
2019-02-23T08:23:01.926Z,5.11
2019-02-23T08:24:01.916Z,5.04
2019-02-23T08:25:01.908Z,5.14
2019-02-23T08:26:01.920Z,5.08
2019-02-23T08:27:01.946Z,5.21
2019-02-23T08:28:01.901Z,5.15
2019-02-23T08:29:01.874Z,5.23
2019-02-23T08:30:01.915Z,5.28
2019-02-23T08:31:01.862Z,5.29
2019-02-23T08:32:01.837Z,5.35
2019-02-23T08:33:01.859Z,5.41
2019-02-23T08:34:01.834Z,5.46
2019-02-23T08:35:01.801Z,5.57
2019-02-23T08:36:01.786Z,5.62
2019-02-23T08:37:01.809Z,5.68
2019-02-23T08:38:01.809Z,5.83
2019-02-23T08:39:01.758Z,5.82
2019-02-23T08:40:01.746Z,5.87
2019-02-23T08:41:01.738Z,5.93
2019-02-23T08:42:01.730Z,6.01
2019-02-23T08:43:02.141Z,6.08
2019-02-23T08:44:01.925Z,6.11
2019-02-23T08:45:01.719Z,6.02
2019-02-23T08:46:01.689Z,6.12
2019-02-23T08:47:01.670Z,6.14
2019-02-23T08:48:01.676Z,6.20
2019-02-23T08:49:01.709Z,6.22
2019-02-23T08:50:01.628Z,6.30
2019-02-23T08:51:01.624Z,6.27
2019-02-23T08:52:01.631Z,6.19
2019-02-23T08:53:01.618Z,6.20
2019-02-23T08:54:01.586Z,6.16
2019-02-23T08:55:01.589Z,6.26
2019-02-23T08:56:01.566Z,6.27
2019-02-23T08:57:01.574Z,6.24
2019-02-23T08:58:01.545Z,6.17
2019-02-23T08:59:01.551Z,6.33
2019-02-23T09:00:01.641Z,6.30
2019-02-23T09:01:01.518Z,6.31
2019-02-23T09:02:01.494Z,6.36
2019-02-23T09:03:01.586Z,6.39
2019-02-23T09:04:01.481Z,6.39
2019-02-23T09:05:01.464Z,6.41
2019-02-23T09:06:01.463Z,6.35
2019-02-23T09:07:02.066Z,6.36
2019-02-23T09:08:01.434Z,6.44
2019-02-23T09:09:01.448Z,6.44
2019-02-23T09:10:01.412Z,6.45
2019-02-23T09:11:01.405Z,6.54
2019-02-23T09:12:01.398Z,6.51
2019-02-23T09:13:01.378Z,6.44
2019-02-23T09:14:01.365Z,6.41
2019-02-23T09:15:01.392Z,6.56
2019-02-23T09:16:01.343Z,6.63
2019-02-23T09:17:01.404Z,6.54
2019-02-23T09:18:01.343Z,6.70
2019-02-23T09:19:01.509Z,6.78
2019-02-23T09:20:01.314Z,6.75
2019-02-23T09:21:01.313Z,6.87
2019-02-23T09:22:01.305Z,6.89
2019-02-23T09:23:01.283Z,6.87
2019-02-23T09:24:01.255Z,6.82
2019-02-23T09:25:01.251Z,6.88
2019-02-23T09:26:01.254Z,6.92
2019-02-23T09:27:01.261Z,7.05
2019-02-23T09:28:01.231Z,6.96
2019-02-23T09:29:01.203Z,7.10
2019-02-23T09:30:01.191Z,7.07
2019-02-23T09:31:03.543Z,7.03
2019-02-23T09:32:01.166Z,7.11
2019-02-23T09:33:01.165Z,7.11
2019-02-23T09:34:01.155Z,7.10
2019-02-23T09:35:01.271Z,7.14
2019-02-23T09:36:01.153Z,7.15
2019-02-23T09:37:01.151Z,7.14
2019-02-23T09:38:01.113Z,7.20
2019-02-23T09:39:01.111Z,7.24
2019-02-23T09:40:01.088Z,7.21
2019-02-23T09:41:01.080Z,7.28
2019-02-23T09:42:07.412Z,7.25
2019-02-23T09:43:02.071Z,7.28
2019-02-23T09:44:01.032Z,7.25
2019-02-23T09:45:01.022Z,7.21
2019-02-23T09:46:01.035Z,7.33
2019-02-23T09:47:01.012Z,7.42
2019-02-23T09:48:00.995Z,7.48
2019-02-23T09:49:01.011Z,7.47
2019-02-23T09:50:00.969Z,7.56
2019-02-23T09:51:00.958Z,7.57
2019-02-23T09:52:00.952Z,7.53
2019-02-23T09:53:10.856Z,7.53
2019-02-23T09:54:02.082Z,7.56
2019-02-23T09:55:00.911Z,7.56
2019-02-23T09:56:00.915Z,7.61
2019-02-23T09:57:00.888Z,7.60
2019-02-23T09:58:00.874Z,7.66
2019-02-23T09:59:00.949Z,7.69
2019-02-23T10:00:00.884Z,7.79
2019-02-23T10:01:00.837Z,7.77
2019-02-23T10:02:00.923Z,7.82
2019-02-23T10:03:00.824Z,7.94
2019-02-23T10:04:00.800Z,8.01
2019-02-23T10:05:00.800Z,7.97
2019-02-23T10:06:00.806Z,7.97
2019-02-23T10:07:00.784Z,8.09
2019-02-23T10:08:00.758Z,8.12
2019-02-23T10:09:00.763Z,8.16
2019-02-23T10:10:00.782Z,8.16
2019-02-23T10:11:00.731Z,8.26
2019-02-23T10:12:00.731Z,8.28
2019-02-23T10:13:00.705Z,8.28
2019-02-23T10:14:00.694Z,8.31
2019-02-23T10:15:01.533Z,8.36
2019-02-23T10:16:00.696Z,8.44
2019-02-23T10:17:00.685Z,8.41
2019-02-23T10:18:00.780Z,8.41
2019-02-23T10:19:00.637Z,8.41
2019-02-23T10:20:00.648Z,8.38
2019-02-23T10:21:00.613Z,8.45
2019-02-23T10:22:00.603Z,8.51
2019-02-23T10:23:00.597Z,8.69
2019-02-23T10:24:00.587Z,8.58
2019-02-23T10:25:00.583Z,8.69
2019-02-23T10:26:00.576Z,8.66
2019-02-23T10:27:00.547Z,8.66
2019-02-23T10:28:00.537Z,8.73
2019-02-23T10:29:00.526Z,8.71
2019-02-23T10:30:00.520Z,8.73
2019-02-23T10:31:00.509Z,8.71
2019-02-23T10:32:00.517Z,8.71
2019-02-23T10:33:00.509Z,8.69
2019-02-23T10:34:00.489Z,8.82
2019-02-23T10:35:00.457Z,8.84
2019-02-23T10:36:00.460Z,8.91
2019-02-23T10:37:00.436Z,8.82
2019-02-23T10:38:00.451Z,8.95
2019-02-23T10:39:01.124Z,8.81
2019-02-23T10:40:00.481Z,8.92
2019-02-23T10:41:00.486Z,8.89
2019-02-23T10:42:01.050Z,9.02
2019-02-23T10:43:00.428Z,8.94
2019-02-23T10:44:00.366Z,8.94
2019-02-23T10:45:01.047Z,9.06
2019-02-23T10:46:00.338Z,9.19
2019-02-23T10:47:00.329Z,9.28
2019-02-23T10:48:00.323Z,9.28
2019-02-23T10:49:00.329Z,9.34
2019-02-23T10:50:00.402Z,9.43
2019-02-23T10:51:00.283Z,9.37
2019-02-23T10:52:00.279Z,9.46
2019-02-23T10:53:00.261Z,9.50
2019-02-23T10:54:00.286Z,9.55
2019-02-23T10:55:00.455Z,9.54
2019-02-23T10:56:00.241Z,9.61
2019-02-23T10:57:00.217Z,9.51
2019-02-23T10:58:00.323Z,9.59
2019-02-23T10:59:00.198Z,9.61
2019-02-23T11:00:00.229Z,9.62
2019-02-23T11:01:00.171Z,9.69
2019-02-23T11:02:00.161Z,9.72
2019-02-23T11:03:00.146Z,9.73
2019-02-23T11:04:00.141Z,9.73
2019-02-23T11:05:00.299Z,9.74
2019-02-23T11:06:00.140Z,9.83
2019-02-23T11:07:00.104Z,9.83
2019-02-23T11:08:00.105Z,9.92
2019-02-23T11:09:00.090Z,9.94
2019-02-23T11:10:00.100Z,9.97
2019-02-23T11:11:00.114Z,9.92
2019-02-23T11:12:00.046Z,10.02
2019-02-23T11:13:00.043Z,10.02
2019-02-23T11:14:00.044Z,9.98
2019-02-23T11:15:00.024Z,10.12
2019-02-23T11:16:00.015Z,10.07
2019-02-23T11:17:00.025Z,10.09
2019-02-23T11:18:00.001Z,10.16
2019-02-23T11:18:59.968Z,10.19
2019-02-23T11:19:59.958Z,10.23
2019-02-23T11:20:59.944Z,10.28
2019-02-23T11:21:59.955Z,10.35
2019-02-23T11:22:59.964Z,10.44
2019-02-23T11:23:59.937Z,10.37
2019-02-23T11:24:59.905Z,10.46
2019-02-23T11:25:59.964Z,10.48
2019-02-23T11:26:59.882Z,10.48
2019-02-23T11:27:59.891Z,10.57
2019-02-23T11:28:59.865Z,10.57
2019-02-23T11:29:59.853Z,10.46
2019-02-23T11:30:59.842Z,10.59
2019-02-23T11:31:59.820Z,10.44
2019-02-23T11:32:59.848Z,10.48
2019-02-23T11:33:59.803Z,10.67
2019-02-23T11:34:59.952Z,10.60
2019-02-23T11:35:59.809Z,10.71
2019-02-23T11:36:59.772Z,10.64
2019-02-23T11:37:59.813Z,10.61
2019-02-23T11:38:59.770Z,10.69
2019-02-23T11:39:59.770Z,10.69
2019-02-23T11:40:59.727Z,10.75
2019-02-23T11:41:59.740Z,10.84
2019-02-23T11:42:59.712Z,10.76
2019-02-23T11:43:59.696Z,10.72
2019-02-23T11:44:59.675Z,10.81
2019-02-23T11:45:59.720Z,10.90
2019-02-23T11:47:00.334Z,10.84
2019-02-23T11:47:59.643Z,10.89
2019-02-23T11:48:59.642Z,10.96
2019-02-23T11:49:59.623Z,10.97
2019-02-23T11:50:59.610Z,11.04
2019-02-23T11:51:59.678Z,11.12
2019-02-23T11:52:59.592Z,10.99
2019-02-23T11:53:59.689Z,11.15
2019-02-23T11:54:59.568Z,11.19
2019-02-23T11:55:59.586Z,11.22
2019-02-23T11:56:59.682Z,11.22
2019-02-23T11:57:59.534Z,11.23
2019-02-23T11:58:59.521Z,11.27
2019-02-23T11:59:59.516Z,11.32
2019-02-23T12:00:59.512Z,11.30
2019-02-23T12:01:59.558Z,11.30
2019-02-23T12:02:59.482Z,11.36
2019-02-23T12:03:59.473Z,11.37
2019-02-23T12:04:59.540Z,11.47
2019-02-23T12:05:59.442Z,11.48
2019-02-23T12:06:59.438Z,11.48
2019-02-23T12:07:59.471Z,11.57
2019-02-23T12:08:59.411Z,11.52
2019-02-23T12:09:59.420Z,11.60
2019-02-23T12:10:59.418Z,11.52
2019-02-23T12:11:59.370Z,11.63
2019-02-23T12:12:59.382Z,11.70
2019-02-23T12:13:59.375Z,11.69
2019-02-23T12:14:59.345Z,11.81
2019-02-23T12:15:59.355Z,11.81
2019-02-23T12:16:59.320Z,11.90
2019-02-23T12:17:59.423Z,11.91
2019-02-23T12:18:59.305Z,12.00
2019-02-23T12:19:59.313Z,12.04
2019-02-23T12:20:59.275Z,12.06
2019-02-23T12:21:59.268Z,11.95
2019-02-23T12:22:59.261Z,12.03
2019-02-23T12:24:05.883Z,12.09
2019-02-23T12:25:00.315Z,12.20
2019-02-23T12:25:59.221Z,12.20
2019-02-23T12:26:59.279Z,12.28
2019-02-23T12:27:59.201Z,12.40
2019-02-23T12:28:59.200Z,12.46
2019-02-23T12:29:59.367Z,12.53
2019-02-23T12:30:59.196Z,12.67
2019-02-23T12:31:59.149Z,12.67
2019-02-23T12:32:59.208Z,12.50
2019-02-23T12:33:59.133Z,12.61
2019-02-23T12:34:59.121Z,12.68
2019-02-23T12:35:59.130Z,12.67
2019-02-23T12:36:59.092Z,12.73
2019-02-23T12:37:59.097Z,12.91
2019-02-23T12:38:59.072Z,12.98
2019-02-23T12:39:59.093Z,13.11
2019-02-23T12:40:59.058Z,13.28
2019-02-23T12:41:59.068Z,13.30
2019-02-23T12:42:59.061Z,13.53
2019-02-23T12:43:59.017Z,13.59
2019-02-23T12:44:59.014Z,13.70
2019-02-23T12:45:59.025Z,13.81
2019-02-23T12:46:59.001Z,13.97
2019-02-23T12:47:58.979Z,13.99
2019-02-23T12:48:58.964Z,14.25
2019-02-23T12:49:58.953Z,14.54
2019-02-23T12:50:58.934Z,14.68
2019-02-23T12:51:58.923Z,14.73
2019-02-23T12:52:59.822Z,14.94
2019-02-23T12:53:59.014Z,15.00
2019-02-23T12:54:58.899Z,15.17
2019-02-23T12:55:58.878Z,15.06
2019-02-23T12:56:58.867Z,15.03
2019-02-23T12:57:58.854Z,15.11
2019-02-23T12:58:58.871Z,15.10
2019-02-23T12:59:58.852Z,15.04
2019-02-23T13:00:58.821Z,15.15
2019-02-23T13:01:58.810Z,15.04
2019-02-23T13:02:58.817Z,15.07
2019-02-23T13:03:58.810Z,15.17
2019-02-23T13:04:58.775Z,15.15
2019-02-23T13:05:58.770Z,15.21
2019-02-23T13:06:58.763Z,15.19
2019-02-23T13:07:58.758Z,15.27
2019-02-23T13:08:58.747Z,15.25
2019-02-23T13:09:59.585Z,15.33
2019-02-23T13:10:58.706Z,15.39
2019-02-23T13:11:58.696Z,15.47
2019-02-23T13:12:58.742Z,15.49
2019-02-23T13:13:58.685Z,15.52
2019-02-23T13:14:58.667Z,15.47